createdAt,value
2022-09-27T00:03:49.006Z,7.18
2022-09-27T00:08:46.180Z,7.50
2022-09-27T00:13:43.845Z,6.07
2022-09-27T00:18:41.145Z,9.50
2022-09-27T00:23:40.031Z,5.32
2022-09-27T00:28:37.920Z,8.60
2022-09-27T00:33:35.145Z,11.05
2022-09-27T00:38:32.931Z,7.85
2022-09-27T00:43:54.106Z,6.32
2022-09-27T00:49:05.148Z,5.53
2022-09-27T00:54:03.889Z,6.25
2022-09-27T00:59:12.075Z,5.20
2022-09-27T01:04:10.725Z,6.32
2022-09-27T01:09:10.557Z,5.15
2022-09-27T01:14:32.641Z,5.72
2022-09-27T01:19:53.320Z,4.90
2022-09-27T01:25:22.742Z,6.70
2022-09-27T01:30:23.050Z,6.30
2022-09-27T01:35:33.494Z,10.18
2022-09-27T01:40:43.212Z,4.80
2022-09-27T01:45:52.030Z,7.37
2022-09-27T01:50:56.067Z,4.63
2022-09-27T01:55:55.730Z,4.57
2022-09-27T02:00:55.105Z,6.13
2022-09-27T02:06:16.400Z,5.03
2022-09-27T02:11:15.349Z,10.80
2022-09-27T02:16:39.620Z,5.18
2022-09-27T02:21:48.715Z,6.07
2022-09-27T02:26:49.595Z,4.30
2022-09-27T02:31:46.885Z,7.50
2022-09-27T02:36:44.475Z,5.28
2022-09-27T02:41:41.915Z,4.47
2022-09-27T02:47:03.659Z,9.82
2022-09-27T02:52:37.904Z,6.30
2022-09-27T02:58:02.134Z,11.73
2022-09-27T03:03:05.650Z,6.15
2022-09-27T03:08:04.378Z,9.20
2022-09-27T03:13:01.983Z,6.65
2022-09-27T03:17:59.760Z,15.80
2022-09-27T03:22:57.135Z,11.73
2022-09-27T03:27:54.395Z,10.60
2022-09-27T03:32:52.269Z,12.27
2022-09-27T03:37:50.220Z,14.05
2022-09-27T03:42:50.590Z,13.93
2022-09-27T03:47:52.266Z,10.35
2022-09-27T03:52:50.212Z,7.22
2022-09-27T03:57:48.467Z,11.55
2022-09-27T04:02:49.970Z,8.35
2022-09-27T04:07:49.671Z,7.35
2022-09-27T04:12:48.170Z,11.68
2022-09-27T04:17:49.361Z,11.00
2022-09-27T04:22:48.017Z,14.23
2022-09-27T04:27:48.580Z,10.07
2022-09-27T04:32:46.155Z,8.63
2022-09-27T04:37:45.270Z,10.23
2022-09-27T04:42:42.665Z,12.95
2022-09-27T04:47:44.762Z,10.02
2022-09-27T04:52:42.260Z,8.50
2022-09-27T04:57:39.536Z,6.07
2022-09-27T05:02:36.789Z,8.23
2022-09-27T05:07:35.495Z,7.53
2022-09-27T05:12:32.891Z,10.75
2022-09-27T05:17:30.306Z,5.80
2022-09-27T05:22:27.945Z,11.68
2022-09-27T05:27:25.278Z,9.38
2022-09-27T05:32:22.680Z,10.57
2022-09-27T05:37:20.395Z,14.85
2022-09-27T05:42:19.880Z,17.23
2022-09-27T05:47:17.545Z,11.10
2022-09-27T05:52:16.767Z,11.52
2022-09-27T05:57:14.865Z,9.30
2022-09-27T06:02:12.617Z,10.07
2022-09-27T06:07:10.610Z,13.30
2022-09-27T06:12:11.779Z,10.43
2022-09-27T06:17:09.045Z,8.45
2022-09-27T06:22:06.200Z,7.22
2022-09-27T06:27:03.942Z,7.55
2022-09-27T06:32:01.545Z,11.80
2022-09-27T06:37:00.255Z,8.00
2022-09-27T06:41:57.930Z,7.15
2022-09-27T06:46:55.380Z,11.18
2022-09-27T06:51:53.526Z,10.07
2022-09-27T06:56:50.888Z,6.10
2022-09-27T07:01:48.432Z,5.75
2022-09-27T07:06:46.127Z,8.77
2022-09-27T07:11:46.152Z,7.85
2022-09-27T07:21:41.326Z,10.13
2022-09-27T07:26:38.554Z,7.63
2022-09-27T07:31:37.244Z,4.10
2022-09-27T07:36:34.470Z,4.20
2022-09-27T07:41:32.110Z,5.60
2022-09-27T07:46:31.218Z,6.55
2022-09-27T07:51:28.880Z,8.70
2022-09-27T07:56:26.179Z,4.53
2022-09-27T08:01:23.676Z,6.30
2022-09-27T08:06:21.279Z,4.60
2022-09-27T08:11:19.242Z,3.83
2022-09-27T08:16:16.508Z,5.13
2022-09-27T08:21:14.204Z,4.55
2022-09-27T08:26:11.414Z,5.30
2022-09-27T08:31:08.725Z,4.50
2022-09-27T08:36:11.810Z,6.47
2022-09-27T08:41:34.061Z,4.07
2022-09-27T08:47:02.723Z,3.85
2022-09-27T08:52:01.124Z,6.50
2022-09-27T08:57:12.883Z,5.63
2022-09-27T09:02:21.981Z,6.00
2022-09-27T09:07:38.307Z,4.05
2022-09-27T09:13:00.915Z,4.03
2022-09-27T09:18:07.947Z,6.15
2022-09-27T09:23:08.163Z,4.38
2022-09-27T09:28:20.787Z,6.80
2022-09-27T09:33:52.938Z,3.45
2022-09-27T09:38:57.226Z,3.38
2022-09-27T09:44:28.240Z,4.07
2022-09-27T09:49:39.467Z,4.35
2022-09-27T09:54:49.712Z,4.78
2022-09-27T09:59:55.558Z,5.43
2022-09-27T10:04:53.087Z,7.60
2022-09-27T10:09:57.428Z,5.72
2022-09-27T10:14:57.972Z,2.30
2022-09-27T10:19:58.486Z,2.05
2022-09-27T10:24:57.324Z,3.28
2022-09-27T10:29:59.610Z,2.47
2022-09-27T10:34:57.257Z,4.07
2022-09-27T10:39:55.354Z,2.35
2022-09-27T10:44:52.783Z,2.13
2022-09-27T10:49:53.929Z,1.63
2022-09-27T10:54:56.993Z,3.25
2022-09-27T10:59:59.557Z,2.30
2022-09-27T11:05:28.088Z,1.65
2022-09-27T11:10:29.895Z,2.75
2022-09-27T11:15:31.283Z,1.85
2022-09-27T11:21:02.967Z,1.52
2022-09-27T11:31:16.440Z,2.10
2022-09-27T11:36:46.358Z,4.47
2022-09-27T11:41:46.777Z,2.90
2022-09-27T11:46:50.891Z,1.60
2022-09-27T11:52:01.098Z,3.60
2022-09-27T11:57:01.041Z,1.80
2022-09-27T12:07:43.967Z,2.90
2022-09-27T12:12:45.448Z,6.57
2022-09-27T12:17:46.953Z,3.17
2022-09-27T12:23:07.307Z,2.35
2022-09-27T12:28:09.016Z,0.80
2022-09-27T12:33:42.336Z,2.10
2022-09-27T12:39:12.293Z,0.75
2022-09-27T12:44:12.268Z,2.85
2022-09-27T12:49:38.888Z,1.25
2022-09-27T12:55:07.018Z,1.27
2022-09-27T13:00:13.037Z,0.98
2022-09-27T13:05:41.778Z,1.17
2022-09-27T13:10:41.908Z,0.50
2022-09-27T13:20:37.494Z,1.40
2022-09-27T13:25:56.757Z,2.08
2022-09-27T13:30:55.553Z,1.35
2022-09-27T13:36:25.078Z,1.08
2022-09-27T13:41:22.307Z,1.10
2022-09-27T13:46:23.898Z,1.83
2022-09-27T13:51:34.202Z,2.78
2022-09-27T13:56:40.552Z,2.28
2022-09-27T14:01:42.573Z,3.17
2022-09-27T14:06:51.737Z,1.55
2022-09-27T14:11:57.049Z,1.42
2022-09-27T14:16:54.621Z,4.05
2022-09-27T14:21:52.827Z,1.85
2022-09-27T14:27:13.344Z,7.50
2022-09-27T14:32:13.513Z,7.72
2022-09-27T14:37:26.605Z,2.45
2022-09-27T14:42:44.457Z,6.57
2022-09-27T14:47:47.497Z,4.50
2022-09-27T14:52:45.290Z,7.05
2022-09-27T14:57:49.502Z,6.93
2022-09-27T15:02:48.151Z,2.25
2022-09-27T15:07:47.607Z,1.38
2022-09-27T15:12:51.577Z,1.25
2022-09-27T15:17:49.015Z,2.75
2022-09-27T15:22:47.007Z,2.88
2022-09-27T15:28:06.370Z,2.40
2022-09-27T15:33:05.226Z,4.15
2022-09-27T15:38:29.166Z,28.20
2022-09-27T15:43:37.263Z,6.63
2022-09-27T15:48:37.833Z,8.18
2022-09-27T15:53:35.107Z,5.30
2022-09-27T15:58:34.691Z,2.58
2022-09-27T16:03:32.629Z,8.63
2022-09-27T16:08:30.244Z,4.05
2022-09-27T16:13:32.740Z,2.85
2022-09-27T16:18:31.774Z,2.22
2022-09-27T16:23:29.203Z,3.17
2022-09-27T16:28:26.395Z,6.03
2022-09-27T16:39:16.157Z,6.88
2022-09-27T16:44:17.556Z,6.78
2022-09-27T16:49:33.747Z,9.50
2022-09-27T16:54:31.335Z,12.45
2022-09-27T16:59:32.647Z,14.43
2022-09-27T17:04:33.068Z,9.45
2022-09-27T17:09:30.462Z,7.90
2022-09-27T17:14:27.968Z,7.78
2022-09-27T17:19:25.647Z,11.00
2022-09-27T17:24:29.516Z,7.82
2022-09-27T17:29:26.749Z,17.40
2022-09-27T17:34:24.135Z,9.85
2022-09-27T17:39:22.521Z,9.27
2022-09-27T17:44:20.527Z,15.02
2022-09-27T17:49:36.395Z,18.20
2022-09-27T17:54:33.595Z,27.63
2022-09-27T17:59:31.264Z,42.83
2022-09-27T18:04:28.705Z,43.05
2022-09-27T18:09:25.972Z,24.08
2022-09-27T18:14:29.894Z,25.83
2022-09-27T18:19:27.563Z,22.27
2022-09-27T18:24:26.372Z,14.25
2022-09-27T18:29:23.643Z,17.50
2022-09-27T18:34:21.050Z,26.92
2022-09-27T18:39:19.752Z,21.42
2022-09-27T18:44:18.248Z,16.90
2022-09-27T18:49:27.802Z,15.77
2022-09-27T18:54:30.169Z,17.77
2022-09-27T18:59:29.036Z,10.13
2022-09-27T19:04:44.213Z,10.70
2022-09-27T19:09:41.440Z,11.95
2022-09-27T19:14:44.293Z,5.03
2022-09-27T19:19:41.863Z,7.65
2022-09-27T19:24:39.192Z,6.95
2022-09-27T19:29:43.260Z,8.23
2022-09-27T19:34:40.542Z,7.45
2022-09-27T19:39:37.933Z,8.63
2022-09-27T19:44:35.409Z,8.52
2022-09-27T19:49:32.661Z,7.18
2022-09-27T19:54:32.690Z,6.47
2022-09-27T19:59:36.421Z,12.80
2022-09-27T20:04:33.673Z,7.15
2022-09-27T20:09:30.941Z,8.68
2022-09-27T20:14:28.141Z,12.00
2022-09-27T20:19:28.619Z,15.77
2022-09-27T20:24:25.989Z,6.38
2022-09-27T20:29:29.813Z,8.50
2022-09-27T20:34:27.388Z,6.93
2022-09-27T20:39:24.618Z,9.88
2022-09-27T20:44:22.089Z,11.60
2022-09-27T20:49:19.742Z,12.65
2022-09-27T20:54:17.258Z,13.32
2022-09-27T20:59:20.762Z,7.13
2022-09-27T21:04:19.994Z,11.82
2022-09-27T21:09:19.504Z,11.90
2022-09-27T21:14:17.288Z,7.87
2022-09-27T21:19:14.832Z,6.97
2022-09-27T21:24:12.086Z,10.20
2022-09-27T21:29:11.811Z,7.40
2022-09-27T21:34:09.182Z,8.85
2022-09-27T21:39:08.941Z,7.78
2022-09-27T21:44:07.419Z,11.32
2022-09-27T21:49:04.798Z,8.63
2022-09-27T21:54:05.582Z,8.20
2022-09-27T21:59:03.484Z,12.27
2022-09-27T22:04:02.772Z,9.60
2022-09-27T22:09:01.534Z,11.90
2022-09-27T22:13:59.545Z,20.27
2022-09-27T22:18:57.287Z,9.00
2022-09-27T22:23:56.556Z,10.75
2022-09-27T22:28:54.183Z,7.68
2022-09-27T22:33:54.732Z,12.68
2022-09-27T22:38:52.605Z,10.15
2022-09-27T22:43:50.047Z,11.52
2022-09-27T22:48:47.319Z,7.22
2022-09-27T22:53:44.866Z,12.63
2022-09-27T22:58:45.522Z,7.25
2022-09-27T23:03:43.579Z,6.78
2022-09-27T23:08:40.833Z,13.70
2022-09-27T23:13:40.948Z,7.72
2022-09-27T23:18:44.686Z,18.48
2022-09-27T23:23:47.477Z,6.18
2022-09-27T23:28:44.848Z,12.80
2022-09-27T23:33:45.111Z,6.93
2022-09-27T23:43:44.600Z,4.75
2022-09-27T23:48:42.729Z,7.05
2022-09-27T23:53:40.401Z,5.65
2022-09-27T23:58:42.921Z,8.80
